ARG1384 SABE-SUMU
Flight info
| Callsign | ARG1384 |
|---|---|
| Flight time | 0h 28m |
| Altitude | 23000 |
| Route | DORVO8 DORVO A305 TOKAM |
| Aircraft | E190/M-SDE3GILORVW/S |
Departure
| Time | 2026-04-20 22:51 |
|---|---|
| Airport | Aeroparque Jorge Newbery (SABE) |
Arrival
| Time | 2026-04-20 23:20 |
|---|---|
| Airport | Carrasco General Cesáreo L. Berisso International Airport (SUMU) |
| Time | Latitude | Longitude | Altitude | Speed | Heading |
|---|---|---|---|---|---|
| 2026-04-20 22:21 | -34.55686 | -58.41484 | 27 ft | 0 kts | 15° |
| 2026-04-20 22:37 | -34.55694 | -58.41486 | 31 ft | 3 kts | 14° |
| 2026-04-20 22:37 | -34.55719 | -58.41488 | 28 ft | 4 kts | 334° |
| 2026-04-20 22:37 | -34.55739 | -58.41469 | 28 ft | 3 kts | 300° |
| 2026-04-20 22:37 | -34.55742 | -58.41461 | 29 ft | 0 kts | 299° |
| 2026-04-20 22:40 | -34.55742 | -58.41462 | 29 ft | 0 kts | 298° |
| 2026-04-20 22:40 | -34.55739 | -58.41469 | 29 ft | 3 kts | 299° |
| 2026-04-20 22:41 | -34.55727 | -58.41496 | 27 ft | 5 kts | 293° |
| 2026-04-20 22:41 | -34.55739 | -58.41552 | 29 ft | 9 kts | 227° |
| 2026-04-20 22:41 | -34.55782 | -58.41620 | 25 ft | 13 kts | 267° |
| 2026-04-20 22:41 | -34.55749 | -58.41715 | 25 ft | 11 kts | 297° |
| 2026-04-20 22:42 | -34.55712 | -58.41794 | 27 ft | 11 kts | 303° |
| 2026-04-20 22:42 | -34.55670 | -58.41871 | 27 ft | 11 kts | 304° |
| 2026-04-20 22:42 | -34.55621 | -58.41958 | 26 ft | 12 kts | 304° |
| 2026-04-20 22:42 | -34.55582 | -58.42025 | 27 ft | 8 kts | 306° |
| 2026-04-20 22:43 | -34.55549 | -58.42081 | 26 ft | 9 kts | 306° |
| 2026-04-20 22:43 | -34.55506 | -58.42153 | 27 ft | 12 kts | 306° |
| 2026-04-20 22:43 | -34.55461 | -58.42223 | 26 ft | 9 kts | 307° |
| 2026-04-20 22:43 | -34.55436 | -58.42265 | 27 ft | 4 kts | 307° |
| 2026-04-20 22:44 | -34.55421 | -58.42289 | 29 ft | 4 kts | 307° |
| 2026-04-20 22:44 | -34.55414 | -58.42300 | 26 ft | 0 kts | 307° |
| 2026-04-20 22:46 | -34.55411 | -58.42305 | 26 ft | 3 kts | 307° |
| 2026-04-20 22:47 | -34.55386 | -58.42346 | 28 ft | 9 kts | 304° |
| 2026-04-20 22:47 | -34.55370 | -58.42389 | 28 ft | 0 kts | 289° |
| 2026-04-20 22:48 | -34.55369 | -58.42393 | 27 ft | 0 kts | 288° |
| 2026-04-20 22:48 | -34.55368 | -58.42395 | 27 ft | 0 kts | 287° |
| 2026-04-20 22:49 | -34.55368 | -58.42396 | 27 ft | 1 kts | 287° |
| 2026-04-20 22:49 | -34.55367 | -58.42399 | 26 ft | 1 kts | 287° |
| 2026-04-20 22:49 | -34.55363 | -58.42417 | 25 ft | 4 kts | 283° |
| 2026-04-20 22:49 | -34.55360 | -58.42463 | 25 ft | 7 kts | 267° |
| 2026-04-20 22:50 | -34.55384 | -58.42508 | 28 ft | 6 kts | 219° |
| 2026-04-20 22:50 | -34.55408 | -58.42499 | 26 ft | 0 kts | 124° |
| 2026-04-20 22:50 | -34.55439 | -58.42445 | 29 ft | 27 kts | 124° |
| 2026-04-20 22:51 | -34.55676 | -58.42019 | 26 ft | 93 kts | 124° |
| 2026-04-20 22:51 | -34.56142 | -58.41167 | 63 ft | 145 kts | 123° |
| 2026-04-20 22:51 | -34.56735 | -58.40082 | 597 ft | 163 kts | 123° |
| 2026-04-20 22:51 | -34.57334 | -58.38855 | 1282 ft | 178 kts | 114° |
| 2026-04-20 22:52 | -34.57593 | -58.37339 | 1967 ft | 192 kts | 90° |
| 2026-04-20 22:52 | -34.57312 | -58.35701 | 2680 ft | 207 kts | 69° |
| 2026-04-20 22:52 | -34.56505 | -58.34250 | 3453 ft | 216 kts | 47° |
| 2026-04-20 22:52 | -34.55240 | -58.33170 | 4080 ft | 231 kts | 20° |
| 2026-04-20 22:53 | -34.53603 | -58.33130 | 4712 ft | 254 kts | 343° |
| 2026-04-20 22:53 | -34.52123 | -58.34366 | 5468 ft | 266 kts | 315° |
| 2026-04-20 22:53 | -34.50747 | -58.35859 | 6480 ft | 268 kts | 329° |
| 2026-04-20 22:53 | -34.48976 | -58.36698 | 6956 ft | 282 kts | 342° |
| 2026-04-20 22:54 | -34.47026 | -58.36893 | 6733 ft | 285 kts | 9° |
| 2026-04-20 22:54 | -34.45250 | -58.35875 | 6386 ft | 288 kts | 39° |
| 2026-04-20 22:54 | -34.44244 | -58.33871 | 6502 ft | 275 kts | 76° |
| 2026-04-20 22:54 | -34.44201 | -58.31543 | 6927 ft | 282 kts | 100° |
| 2026-04-20 22:55 | -34.44785 | -58.29257 | 7389 ft | 288 kts | 111° |
| 2026-04-20 22:55 | -34.45577 | -58.27016 | 7837 ft | 291 kts | 111° |
| 2026-04-20 22:55 | -34.46337 | -58.24741 | 8283 ft | 293 kts | 110° |
| 2026-04-20 22:55 | -34.47080 | -58.22430 | 8737 ft | 296 kts | 110° |
| 2026-04-20 22:56 | -34.47829 | -58.20073 | 8844 ft | 305 kts | 110° |
| 2026-04-20 22:56 | -34.48640 | -58.17735 | 9035 ft | 294 kts | 111° |
| 2026-04-20 22:56 | -34.49385 | -58.15417 | 9540 ft | 295 kts | 110° |
| 2026-04-20 22:56 | -34.50119 | -58.13096 | 10157 ft | 301 kts | 110° |
| 2026-04-20 22:57 | -34.50865 | -58.10706 | 10759 ft | 306 kts | 109° |
| 2026-04-20 22:57 | -34.51619 | -58.08268 | 11372 ft | 310 kts | 110° |
| 2026-04-20 22:57 | -34.52388 | -58.05793 | 11983 ft | 317 kts | 110° |
| 2026-04-20 22:57 | -34.53176 | -58.03276 | 12616 ft | 320 kts | 110° |
| 2026-04-20 22:58 | -34.53981 | -58.00729 | 13322 ft | 326 kts | 110° |
| 2026-04-20 22:58 | -34.54802 | -57.98140 | 14024 ft | 332 kts | 110° |
| 2026-04-20 22:58 | -34.55648 | -57.95509 | 14678 ft | 337 kts | 111° |
| 2026-04-20 22:58 | -34.56515 | -57.92844 | 15339 ft | 342 kts | 111° |
| 2026-04-20 22:59 | -34.57408 | -57.90148 | 16004 ft | 346 kts | 111° |
| 2026-04-20 22:59 | -34.58327 | -57.87419 | 16697 ft | 350 kts | 112° |
| 2026-04-20 22:59 | -34.59260 | -57.84683 | 17409 ft | 352 kts | 112° |
| 2026-04-20 22:59 | -34.60204 | -57.81939 | 18127 ft | 352 kts | 112° |
| 2026-04-20 23:00 | -34.61151 | -57.79222 | 18774 ft | 354 kts | 113° |
| 2026-04-20 23:00 | -34.62121 | -57.76471 | 19428 ft | 355 kts | 114° |
| 2026-04-20 23:00 | -34.63111 | -57.73725 | 20092 ft | 355 kts | 114° |
| 2026-04-20 23:00 | -34.64117 | -57.70979 | 20758 ft | 356 kts | 115° |
| 2026-04-20 23:01 | -34.65137 | -57.68240 | 21451 ft | 356 kts | 115° |
| 2026-04-20 23:01 | -34.66163 | -57.65522 | 22162 ft | 353 kts | 116° |
| 2026-04-20 23:01 | -34.67198 | -57.62827 | 22877 ft | 350 kts | 117° |
| 2026-04-20 23:01 | -34.68268 | -57.60104 | 23020 ft | 367 kts | 117° |
| 2026-04-20 23:02 | -34.69423 | -57.57261 | 23033 ft | 381 kts | 118° |
| 2026-04-20 23:02 | -34.70610 | -57.54342 | 23053 ft | 389 kts | 118° |
| 2026-04-20 23:02 | -34.71704 | -57.51299 | 22770 ft | 397 kts | 108° |
| 2026-04-20 23:02 | -34.72233 | -57.48020 | 22723 ft | 391 kts | 95° |
| 2026-04-20 23:03 | -34.72481 | -57.44718 | 22870 ft | 395 kts | 94° |
| 2026-04-20 23:03 | -34.72731 | -57.41355 | 22554 ft | 402 kts | 94° |
| 2026-04-20 23:03 | -34.72985 | -57.37978 | 22099 ft | 402 kts | 94° |
| 2026-04-20 23:03 | -34.73242 | -57.34597 | 21532 ft | 400 kts | 94° |
| 2026-04-20 23:04 | -34.73500 | -57.31249 | 20982 ft | 396 kts | 94° |
| 2026-04-20 23:04 | -34.73754 | -57.27973 | 20440 ft | 393 kts | 94° |
| 2026-04-20 23:04 | -34.74010 | -57.24681 | 19931 ft | 389 kts | 94° |
| 2026-04-20 23:04 | -34.74264 | -57.21424 | 19417 ft | 385 kts | 94° |
| 2026-04-20 23:05 | -34.74517 | -57.18192 | 18911 ft | 382 kts | 93° |
| 2026-04-20 23:05 | -34.74766 | -57.14993 | 18408 ft | 379 kts | 93° |
| 2026-04-20 23:05 | -34.75013 | -57.11816 | 17876 ft | 375 kts | 93° |
| 2026-04-20 23:05 | -34.75258 | -57.08681 | 17409 ft | 369 kts | 93° |
| 2026-04-20 23:06 | -34.75499 | -57.05593 | 16916 ft | 365 kts | 94° |
| 2026-04-20 23:06 | -34.75737 | -57.02541 | 16434 ft | 360 kts | 94° |
| 2026-04-20 23:06 | -34.75971 | -56.99526 | 15964 ft | 356 kts | 94° |
| 2026-04-20 23:06 | -34.76203 | -56.96541 | 15501 ft | 353 kts | 94° |
| 2026-04-20 23:07 | -34.76355 | -56.94584 | 15188 ft | 350 kts | 94° |
| 2026-04-20 23:07 | -34.76582 | -56.91651 | 14729 ft | 347 kts | 94° |
| 2026-04-20 23:07 | -34.76808 | -56.88742 | 14271 ft | 344 kts | 94° |
| 2026-04-20 23:07 | -34.77031 | -56.85859 | 13808 ft | 341 kts | 94° |
| 2026-04-20 23:08 | -34.77251 | -56.83006 | 13352 ft | 337 kts | 94° |
| 2026-04-20 23:08 | -34.77469 | -56.80194 | 12916 ft | 332 kts | 94° |
| 2026-04-20 23:08 | -34.77683 | -56.77414 | 12481 ft | 328 kts | 94° |
| 2026-04-20 23:08 | -34.77895 | -56.74670 | 12049 ft | 324 kts | 94° |
| 2026-04-20 23:09 | -34.78104 | -56.71959 | 11622 ft | 320 kts | 94° |
| 2026-04-20 23:09 | -34.78421 | -56.69293 | 11197 ft | 316 kts | 102° |
| 2026-04-20 23:09 | -34.78940 | -56.66707 | 10788 ft | 313 kts | 103° |
| 2026-04-20 23:09 | -34.79427 | -56.64139 | 10375 ft | 310 kts | 102° |
| 2026-04-20 23:10 | -34.79902 | -56.61597 | 9958 ft | 307 kts | 102° |
| 2026-04-20 23:10 | -34.80361 | -56.59106 | 9548 ft | 303 kts | 102° |
| 2026-04-20 23:10 | -34.80814 | -56.56619 | 9152 ft | 299 kts | 102° |
| 2026-04-20 23:10 | -34.81260 | -56.54163 | 8735 ft | 297 kts | 102° |
| 2026-04-20 23:11 | -34.81703 | -56.51697 | 8255 ft | 297 kts | 101° |
| 2026-04-20 23:11 | -34.82142 | -56.49256 | 7886 ft | 293 kts | 101° |
| 2026-04-20 23:11 | -34.82572 | -56.46847 | 7505 ft | 290 kts | 101° |
| 2026-04-20 23:11 | -34.82999 | -56.44453 | 7136 ft | 289 kts | 101° |
| 2026-04-20 23:12 | -34.83427 | -56.42060 | 6712 ft | 290 kts | 101° |
| 2026-04-20 23:12 | -34.83851 | -56.39673 | 6343 ft | 285 kts | 101° |
| 2026-04-20 23:12 | -34.84263 | -56.37343 | 5927 ft | 277 kts | 101° |
| 2026-04-20 23:12 | -34.84662 | -56.35091 | 5597 ft | 267 kts | 101° |
| 2026-04-20 23:13 | -34.85047 | -56.32909 | 5232 ft | 260 kts | 101° |
| 2026-04-20 23:13 | -34.85416 | -56.30815 | 4931 ft | 253 kts | 101° |
| 2026-04-20 23:13 | -34.85783 | -56.28740 | 4574 ft | 248 kts | 101° |
| 2026-04-20 23:13 | -34.86470 | -56.26848 | 4219 ft | 246 kts | 130° |
| 2026-04-20 23:14 | -34.87735 | -56.25536 | 3982 ft | 233 kts | 144° |
| 2026-04-20 23:14 | -34.89043 | -56.24434 | 3630 ft | 224 kts | 144° |
| 2026-04-20 23:14 | -34.90301 | -56.23350 | 3317 ft | 217 kts | 143° |
| 2026-04-20 23:14 | -34.91478 | -56.22326 | 3129 ft | 199 kts | 143° |
| 2026-04-20 23:15 | -34.92481 | -56.21241 | 2850 ft | 190 kts | 126° |
| 2026-04-20 23:15 | -34.92979 | -56.19833 | 2755 ft | 178 kts | 99° |
| 2026-04-20 23:15 | -34.92895 | -56.18337 | 2590 ft | 179 kts | 73° |
| 2026-04-20 23:15 | -34.92286 | -56.17021 | 2441 ft | 179 kts | 57° |
| 2026-04-20 23:16 | -34.91561 | -56.15849 | 2257 ft | 167 kts | 54° |
| 2026-04-20 23:16 | -34.90887 | -56.14764 | 2087 ft | 154 kts | 56° |
| 2026-04-20 23:16 | -34.90255 | -56.13724 | 1939 ft | 151 kts | 57° |
| 2026-04-20 23:16 | -34.89647 | -56.12695 | 1790 ft | 146 kts | 58° |
| 2026-04-20 23:17 | -34.89076 | -56.11710 | 1636 ft | 140 kts | 58° |
| 2026-04-20 23:17 | -34.88511 | -56.10747 | 1475 ft | 139 kts | 57° |
| 2026-04-20 23:17 | -34.87929 | -56.09789 | 1288 ft | 142 kts | 57° |
| 2026-04-20 23:17 | -34.87359 | -56.08854 | 1164 ft | 132 kts | 57° |
| 2026-04-20 23:18 | -34.86808 | -56.07975 | 937 ft | 128 kts | 57° |
| 2026-04-20 23:18 | -34.86287 | -56.07112 | 772 ft | 125 kts | 57° |
| 2026-04-20 23:18 | -34.85766 | -56.06259 | 648 ft | 128 kts | 56° |
| 2026-04-20 23:18 | -34.85240 | -56.05403 | 412 ft | 123 kts | 57° |
| 2026-04-20 23:19 | -34.84749 | -56.04588 | 255 ft | 116 kts | 58° |
| 2026-04-20 23:19 | -34.84271 | -56.03806 | 131 ft | 114 kts | 58° |
| 2026-04-20 23:19 | -34.83845 | -56.03093 | 84 ft | 89 kts | 54° |
| 2026-04-20 23:19 | -34.83560 | -56.02624 | 81 ft | 57 kts | 54° |
| 2026-04-20 23:20 | -34.83339 | -56.02261 | 81 ft | 51 kts | 52° |
| 2026-04-20 23:20 | -34.83210 | -56.02028 | 84 ft | 19 kts | 82° |
| 2026-04-20 23:20 | -34.83271 | -56.01920 | 82 ft | 15 kts | 142° |
| 2026-04-20 23:20 | -34.83354 | -56.01845 | 81 ft | 15 kts | 143° |
| 2026-04-20 23:21 | -34.83417 | -56.01790 | 83 ft | 11 kts | 146° |
| 2026-04-20 23:21 | -34.83486 | -56.01769 | 82 ft | 11 kts | 200° |
| 2026-04-20 23:21 | -34.83534 | -56.01831 | 83 ft | 9 kts | 233° |
| 2026-04-20 23:21 | -34.83565 | -56.01854 | 81 ft | 4 kts | 166° |
| 2026-04-20 23:22 | -34.83588 | -56.01830 | 81 ft | 5 kts | 141° |
| 2026-04-20 23:22 | -34.83603 | -56.01816 | 85 ft | 3 kts | 143° |
| 2026-04-20 23:22 | -34.83612 | -56.01809 | 81 ft | 0 kts | 144° |
| 2026-04-20 23:22 | -34.83613 | -56.01808 | 81 ft | 0 kts | 144° |